sensor_id;sensor_type;location;lat;lon;timestamp;P1;durP1;ratioP1;P2;durP2;ratioP2
47259;SDS011;32999;52.412;4.890;2023-09-19T00:03:47;6.70;;;2.13;;
47259;SDS011;32999;52.412;4.890;2023-09-19T00:08:49;5.40;;;1.35;;
47259;SDS011;32999;52.412;4.890;2023-09-19T00:13:52;5.55;;;1.20;;
47259;SDS011;32999;52.412;4.890;2023-09-19T00:18:53;6.85;;;1.40;;
47259;SDS011;32999;52.412;4.890;2023-09-19T00:23:55;9.73;;;2.60;;
47259;SDS011;32999;52.412;4.890;2023-09-19T00:28:58;6.55;;;1.60;;
47259;SDS011;32999;52.412;4.890;2023-09-19T00:34:04;7.07;;;1.73;;
47259;SDS011;32999;52.412;4.890;2023-09-19T00:39:06;6.65;;;1.60;;
47259;SDS011;32999;52.412;4.890;2023-09-19T00:44:10;5.72;;;1.70;;
47259;SDS011;32999;52.412;4.890;2023-09-19T00:49:12;11.50;;;1.52;;
47259;SDS011;32999;52.412;4.890;2023-09-19T00:54:15;16.95;;;2.83;;
47259;SDS011;32999;52.412;4.890;2023-09-19T00:59:19;10.52;;;1.88;;
47259;SDS011;32999;52.412;4.890;2023-09-19T01:04:22;11.68;;;2.15;;
47259;SDS011;32999;52.412;4.890;2023-09-19T01:09:24;3.35;;;1.40;;
47259;SDS011;32999;52.412;4.890;2023-09-19T01:14:29;10.10;;;1.42;;
47259;SDS011;32999;52.412;4.890;2023-09-19T01:30:45;8.77;;;1.50;;
47259;SDS011;32999;52.412;4.890;2023-09-19T01:35:50;8.55;;;1.45;;
47259;SDS011;32999;52.412;4.890;2023-09-19T01:40:54;9.13;;;1.73;;
47259;SDS011;32999;52.412;4.890;2023-09-19T01:46:07;15.07;;;2.38;;
47259;SDS011;32999;52.412;4.890;2023-09-19T01:51:16;6.38;;;1.45;;
47259;SDS011;32999;52.412;4.890;2023-09-19T01:56:22;10.20;;;2.05;;
47259;SDS011;32999;52.412;4.890;2023-09-19T02:01:30;8.90;;;1.50;;
47259;SDS011;32999;52.412;4.890;2023-09-19T02:06:32;9.77;;;1.83;;
47259;SDS011;32999;52.412;4.890;2023-09-19T02:11:35;12.77;;;2.38;;
47259;SDS011;32999;52.412;4.890;2023-09-19T02:16:38;8.30;;;1.92;;
47259;SDS011;32999;52.412;4.890;2023-09-19T02:21:40;9.33;;;2.20;;
47259;SDS011;32999;52.412;4.890;2023-09-19T02:26:42;13.35;;;2.55;;
47259;SDS011;32999;52.412;4.890;2023-09-19T02:31:45;7.43;;;1.40;;
47259;SDS011;32999;52.412;4.890;2023-09-19T02:36:47;11.38;;;3.05;;
47259;SDS011;32999;52.412;4.890;2023-09-19T02:41:49;13.20;;;1.65;;
47259;SDS011;32999;52.412;4.890;2023-09-19T02:46:52;11.00;;;2.55;;
47259;SDS011;32999;52.412;4.890;2023-09-19T02:51:53;11.23;;;1.88;;
47259;SDS011;32999;52.412;4.890;2023-09-19T02:56:55;8.77;;;1.70;;
47259;SDS011;32999;52.412;4.890;2023-09-19T03:02:00;9.30;;;2.03;;
47259;SDS011;32999;52.412;4.890;2023-09-19T03:07:03;14.30;;;3.25;;
47259;SDS011;32999;52.412;4.890;2023-09-19T03:12:04;4.93;;;1.30;;
47259;SDS011;32999;52.412;4.890;2023-09-19T03:17:08;6.72;;;1.30;;
47259;SDS011;32999;52.412;4.890;2023-09-19T03:22:10;8.13;;;1.63;;
47259;SDS011;32999;52.412;4.890;2023-09-19T03:27:12;6.63;;;1.30;;
47259;SDS011;32999;52.412;4.890;2023-09-19T03:32:15;6.45;;;1.48;;
47259;SDS011;32999;52.412;4.890;2023-09-19T03:37:17;6.50;;;1.83;;
47259;SDS011;32999;52.412;4.890;2023-09-19T03:42:19;14.32;;;2.08;;
47259;SDS011;32999;52.412;4.890;2023-09-19T03:47:27;7.60;;;1.70;;
47259;SDS011;32999;52.412;4.890;2023-09-19T03:52:28;6.53;;;2.33;;
47259;SDS011;32999;52.412;4.890;2023-09-19T03:57:30;8.95;;;1.55;;
47259;SDS011;32999;52.412;4.890;2023-09-19T04:02:33;7.35;;;1.70;;
47259;SDS011;32999;52.412;4.890;2023-09-19T04:07:34;9.35;;;1.45;;
47259;SDS011;32999;52.412;4.890;2023-09-19T04:12:36;5.47;;;1.40;;
47259;SDS011;32999;52.412;4.890;2023-09-19T04:17:40;7.82;;;1.40;;
47259;SDS011;32999;52.412;4.890;2023-09-19T04:22:41;6.85;;;1.20;;
47259;SDS011;32999;52.412;4.890;2023-09-19T04:27:43;10.63;;;1.65;;
47259;SDS011;32999;52.412;4.890;2023-09-19T04:32:47;9.25;;;1.90;;
47259;SDS011;32999;52.412;4.890;2023-09-19T04:37:50;7.30;;;1.40;;
47259;SDS011;32999;52.412;4.890;2023-09-19T04:42:53;11.20;;;1.77;;
47259;SDS011;32999;52.412;4.890;2023-09-19T04:47:58;7.30;;;1.40;;
47259;SDS011;32999;52.412;4.890;2023-09-19T04:52:59;12.13;;;2.38;;
47259;SDS011;32999;52.412;4.890;2023-09-19T04:58:01;8.15;;;1.77;;
47259;SDS011;32999;52.412;4.890;2023-09-19T05:03:05;6.75;;;1.77;;
47259;SDS011;32999;52.412;4.890;2023-09-19T05:08:09;11.30;;;1.80;;
47259;SDS011;32999;52.412;4.890;2023-09-19T05:13:10;9.77;;;2.30;;
47259;SDS011;32999;52.412;4.890;2023-09-19T05:18:14;10.13;;;1.42;;
47259;SDS011;32999;52.412;4.890;2023-09-19T05:23:16;8.02;;;1.52;;
47259;SDS011;32999;52.412;4.890;2023-09-19T05:28:21;12.85;;;2.47;;
47259;SDS011;32999;52.412;4.890;2023-09-19T05:33:25;9.00;;;1.48;;
47259;SDS011;32999;52.412;4.890;2023-09-19T05:38:27;8.52;;;1.58;;
47259;SDS011;32999;52.412;4.890;2023-09-19T05:43:29;8.50;;;1.60;;
47259;SDS011;32999;52.412;4.890;2023-09-19T05:48:32;10.00;;;2.25;;
47259;SDS011;32999;52.412;4.890;2023-09-19T05:53:33;10.05;;;2.00;;
47259;SDS011;32999;52.412;4.890;2023-09-19T05:58:35;9.88;;;2.38;;
47259;SDS011;32999;52.412;4.890;2023-09-19T06:03:38;9.52;;;2.05;;
47259;SDS011;32999;52.412;4.890;2023-09-19T06:08:40;14.30;;;2.75;;
47259;SDS011;32999;52.412;4.890;2023-09-19T06:13:44;10.82;;;2.70;;
47259;SDS011;32999;52.412;4.890;2023-09-19T06:18:48;6.70;;;1.63;;
47259;SDS011;32999;52.412;4.890;2023-09-19T06:23:53;11.10;;;1.98;;
47259;SDS011;32999;52.412;4.890;2023-09-19T06:28:55;9.88;;;1.90;;
47259;SDS011;32999;52.412;4.890;2023-09-19T06:33:58;13.15;;;3.70;;
47259;SDS011;32999;52.412;4.890;2023-09-19T06:39:00;8.25;;;2.42;;
47259;SDS011;32999;52.412;4.890;2023-09-19T06:44:04;22.17;;;4.28;;
47259;SDS011;32999;52.412;4.890;2023-09-19T06:49:08;20.65;;;3.33;;
47259;SDS011;32999;52.412;4.890;2023-09-19T06:54:10;14.18;;;3.33;;
47259;SDS011;32999;52.412;4.890;2023-09-19T06:59:12;7.35;;;1.77;;
47259;SDS011;32999;52.412;4.890;2023-09-19T07:04:15;7.18;;;1.90;;
47259;SDS011;32999;52.412;4.890;2023-09-19T07:09:19;9.70;;;1.70;;
47259;SDS011;32999;52.412;4.890;2023-09-19T07:14:22;11.05;;;2.40;;
47259;SDS011;32999;52.412;4.890;2023-09-19T07:19:26;13.63;;;3.63;;
47259;SDS011;32999;52.412;4.890;2023-09-19T07:24:28;11.43;;;2.95;;
47259;SDS011;32999;52.412;4.890;2023-09-19T07:29:30;11.93;;;2.25;;
47259;SDS011;32999;52.412;4.890;2023-09-19T07:34:33;14.35;;;2.28;;
47259;SDS011;32999;52.412;4.890;2023-09-19T07:39:35;14.02;;;2.47;;
47259;SDS011;32999;52.412;4.890;2023-09-19T07:44:36;11.30;;;1.88;;
47259;SDS011;32999;52.412;4.890;2023-09-19T07:49:39;10.80;;;2.50;;
47259;SDS011;32999;52.412;4.890;2023-09-19T07:54:42;14.07;;;2.92;;
47259;SDS011;32999;52.412;4.890;2023-09-19T07:59:44;13.98;;;3.08;;
47259;SDS011;32999;52.412;4.890;2023-09-19T08:04:48;9.48;;;2.03;;
47259;SDS011;32999;52.412;4.890;2023-09-19T08:09:51;10.85;;;2.47;;
47259;SDS011;32999;52.412;4.890;2023-09-19T08:14:52;12.40;;;1.70;;
47259;SDS011;32999;52.412;4.890;2023-09-19T08:19:56;11.63;;;2.28;;
47259;SDS011;32999;52.412;4.890;2023-09-19T08:24:58;14.27;;;2.50;;
47259;SDS011;32999;52.412;4.890;2023-09-19T08:29:59;12.13;;;2.25;;
47259;SDS011;32999;52.412;4.890;2023-09-19T08:35:04;14.77;;;2.47;;
47259;SDS011;32999;52.412;4.890;2023-09-19T08:40:08;7.50;;;1.73;;
47259;SDS011;32999;52.412;4.890;2023-09-19T08:45:10;18.75;;;3.22;;
47259;SDS011;32999;52.412;4.890;2023-09-19T08:50:15;10.48;;;2.05;;
47259;SDS011;32999;52.412;4.890;2023-09-19T08:55:20;19.40;;;3.05;;
47259;SDS011;32999;52.412;4.890;2023-09-19T09:00:27;12.65;;;2.47;;
47259;SDS011;32999;52.412;4.890;2023-09-19T09:05:31;9.63;;;2.63;;
47259;SDS011;32999;52.412;4.890;2023-09-19T09:15:55;16.33;;;2.92;;
47259;SDS011;32999;52.412;4.890;2023-09-19T09:20:58;9.50;;;2.30;;
47259;SDS011;32999;52.412;4.890;2023-09-19T09:26:00;16.20;;;2.85;;
47259;SDS011;32999;52.412;4.890;2023-09-19T09:31:05;12.48;;;2.83;;
47259;SDS011;32999;52.412;4.890;2023-09-19T09:41:13;11.63;;;1.88;;
47259;SDS011;32999;52.412;4.890;2023-09-19T09:46:27;14.23;;;2.92;;
47259;SDS011;32999;52.412;4.890;2023-09-19T09:51:49;11.13;;;2.72;;
47259;SDS011;32999;52.412;4.890;2023-09-19T09:56:59;10.52;;;2.53;;
47259;SDS011;32999;52.412;4.890;2023-09-19T10:02:13;9.77;;;2.42;;
47259;SDS011;32999;52.412;4.890;2023-09-19T10:07:28;15.30;;;2.67;;
47259;SDS011;32999;52.412;4.890;2023-09-19T10:12:36;13.65;;;3.53;;
47259;SDS011;32999;52.412;4.890;2023-09-19T10:17:43;11.63;;;2.45;;
47259;SDS011;32999;52.412;4.890;2023-09-19T10:22:47;14.98;;;2.28;;
47259;SDS011;32999;52.412;4.890;2023-09-19T10:27:57;13.05;;;2.53;;
47259;SDS011;32999;52.412;4.890;2023-09-19T10:33:03;12.63;;;2.60;;
47259;SDS011;32999;52.412;4.890;2023-09-19T10:38:09;10.73;;;2.38;;
47259;SDS011;32999;52.412;4.890;2023-09-19T10:43:12;8.75;;;1.60;;
47259;SDS011;32999;52.412;4.890;2023-09-19T10:48:19;8.90;;;1.63;;
47259;SDS011;32999;52.412;4.890;2023-09-19T10:53:24;9.27;;;1.77;;
47259;SDS011;32999;52.412;4.890;2023-09-19T10:58:28;11.05;;;2.22;;
47259;SDS011;32999;52.412;4.890;2023-09-19T11:03:30;6.68;;;2.35;;
47259;SDS011;32999;52.412;4.890;2023-09-19T11:14:42;7.53;;;1.63;;
47259;SDS011;32999;52.412;4.890;2023-09-19T11:25:41;15.98;;;3.40;;
47259;SDS011;32999;52.412;4.890;2023-09-19T11:30:49;8.98;;;2.63;;
47259;SDS011;32999;52.412;4.890;2023-09-19T11:36:00;7.35;;;1.50;;
47259;SDS011;32999;52.412;4.890;2023-09-19T11:46:52;13.07;;;2.00;;
47259;SDS011;32999;52.412;4.890;2023-09-19T11:51:56;6.30;;;1.90;;
47259;SDS011;32999;52.412;4.890;2023-09-19T11:57:04;8.85;;;1.50;;
47259;SDS011;32999;52.412;4.890;2023-09-19T12:02:09;9.77;;;1.67;;
47259;SDS011;32999;52.412;4.890;2023-09-19T12:07:18;12.32;;;2.22;;
47259;SDS011;32999;52.412;4.890;2023-09-19T12:12:22;8.50;;;1.75;;
47259;SDS011;32999;52.412;4.890;2023-09-19T12:17:35;6.93;;;1.65;;
47259;SDS011;32999;52.412;4.890;2023-09-19T12:22:39;5.80;;;1.40;;
47259;SDS011;32999;52.412;4.890;2023-09-19T12:27:41;4.28;;;1.48;;
47259;SDS011;32999;52.412;4.890;2023-09-19T12:32:45;3.63;;;1.10;;
47259;SDS011;32999;52.412;4.890;2023-09-19T12:37:51;7.22;;;1.67;;
47259;SDS011;32999;52.412;4.890;2023-09-19T12:42:55;5.60;;;1.30;;
47259;SDS011;32999;52.412;4.890;2023-09-19T12:48:18;6.22;;;1.20;;
47259;SDS011;32999;52.412;4.890;2023-09-19T12:53:29;9.15;;;1.50;;
47259;SDS011;32999;52.412;4.890;2023-09-19T12:58:32;4.63;;;1.40;;
47259;SDS011;32999;52.412;4.890;2023-09-19T13:03:36;3.85;;;1.58;;
47259;SDS011;32999;52.412;4.890;2023-09-19T13:13:42;8.73;;;1.50;;
47259;SDS011;32999;52.412;4.890;2023-09-19T13:18:48;8.00;;;1.57;;
47259;SDS011;32999;52.412;4.890;2023-09-19T13:23:53;12.77;;;2.58;;
47259;SDS011;32999;52.412;4.890;2023-09-19T13:28:58;6.10;;;1.92;;
47259;SDS011;32999;52.412;4.890;2023-09-19T13:34:02;8.85;;;1.98;;
47259;SDS011;32999;52.412;4.890;2023-09-19T13:39:03;7.47;;;2.22;;
47259;SDS011;32999;52.412;4.890;2023-09-19T13:44:07;9.43;;;1.67;;
47259;SDS011;32999;52.412;4.890;2023-09-19T13:49:12;9.37;;;1.93;;
47259;SDS011;32999;52.412;4.890;2023-09-19T13:54:13;14.02;;;1.80;;
47259;SDS011;32999;52.412;4.890;2023-09-19T13:59:15;5.93;;;1.60;;
47259;SDS011;32999;52.412;4.890;2023-09-19T14:04:18;8.88;;;3.08;;
47259;SDS011;32999;52.412;4.890;2023-09-19T14:09:21;8.43;;;1.55;;
47259;SDS011;32999;52.412;4.890;2023-09-19T14:14:23;8.25;;;2.03;;
47259;SDS011;32999;52.412;4.890;2023-09-19T14:19:26;5.25;;;1.52;;
47259;SDS011;32999;52.412;4.890;2023-09-19T14:24:28;9.23;;;1.80;;
47259;SDS011;32999;52.412;4.890;2023-09-19T14:29:29;10.32;;;2.60;;
47259;SDS011;32999;52.412;4.890;2023-09-19T14:34:33;16.00;;;3.53;;
47259;SDS011;32999;52.412;4.890;2023-09-19T14:39:36;7.57;;;2.78;;
47259;SDS011;32999;52.412;4.890;2023-09-19T14:44:38;7.28;;;1.92;;
47259;SDS011;32999;52.412;4.890;2023-09-19T14:49:41;8.30;;;1.98;;
47259;SDS011;32999;52.412;4.890;2023-09-19T14:54:43;10.45;;;2.90;;
47259;SDS011;32999;52.412;4.890;2023-09-19T14:59:45;8.00;;;1.88;;
47259;SDS011;32999;52.412;4.890;2023-09-19T15:04:48;7.85;;;1.73;;
47259;SDS011;32999;52.412;4.890;2023-09-19T15:09:50;15.30;;;2.27;;
47259;SDS011;32999;52.412;4.890;2023-09-19T15:14:52;7.15;;;2.53;;
47259;SDS011;32999;52.412;4.890;2023-09-19T15:19:55;8.27;;;2.42;;
47259;SDS011;32999;52.412;4.890;2023-09-19T15:24:57;8.43;;;2.42;;
47259;SDS011;32999;52.412;4.890;2023-09-19T15:29:59;8.85;;;1.90;;
47259;SDS011;32999;52.412;4.890;2023-09-19T15:35:04;11.90;;;2.67;;
47259;SDS011;32999;52.412;4.890;2023-09-19T15:40:08;7.28;;;2.40;;
47259;SDS011;32999;52.412;4.890;2023-09-19T15:45:12;12.93;;;3.03;;
47259;SDS011;32999;52.412;4.890;2023-09-19T15:50:16;10.57;;;3.15;;
47259;SDS011;32999;52.412;4.890;2023-09-19T15:55:18;16.80;;;2.83;;
47259;SDS011;32999;52.412;4.890;2023-09-19T16:00:20;9.10;;;2.65;;
47259;SDS011;32999;52.412;4.890;2023-09-19T16:05:23;17.10;;;4.55;;
47259;SDS011;32999;52.412;4.890;2023-09-19T16:10:25;10.88;;;3.03;;
47259;SDS011;32999;52.412;4.890;2023-09-19T16:15:27;13.60;;;3.10;;
47259;SDS011;32999;52.412;4.890;2023-09-19T16:20:30;12.38;;;3.20;;
47259;SDS011;32999;52.412;4.890;2023-09-19T16:25:33;13.57;;;3.42;;
47259;SDS011;32999;52.412;4.890;2023-09-19T16:30:35;9.32;;;2.97;;
47259;SDS011;32999;52.412;4.890;2023-09-19T16:35:40;9.63;;;2.75;;
47259;SDS011;32999;52.412;4.890;2023-09-19T16:40:50;8.57;;;2.63;;
47259;SDS011;32999;52.412;4.890;2023-09-19T16:45:52;11.88;;;3.60;;
47259;SDS011;32999;52.412;4.890;2023-09-19T16:51:00;19.13;;;6.97;;
47259;SDS011;32999;52.412;4.890;2023-09-19T16:56:04;29.15;;;10.73;;
47259;SDS011;32999;52.412;4.890;2023-09-19T17:01:09;29.05;;;11.63;;
47259;SDS011;32999;52.412;4.890;2023-09-19T17:06:13;24.88;;;9.32;;
47259;SDS011;32999;52.412;4.890;2023-09-19T17:11:16;27.90;;;11.45;;
47259;SDS011;32999;52.412;4.890;2023-09-19T17:16:18;34.72;;;12.75;;
47259;SDS011;32999;52.412;4.890;2023-09-19T17:21:23;25.60;;;10.15;;
47259;SDS011;32999;52.412;4.890;2023-09-19T17:31:28;13.27;;;5.18;;
47259;SDS011;32999;52.412;4.890;2023-09-19T17:36:31;12.68;;;4.32;;
47259;SDS011;32999;52.412;4.890;2023-09-19T17:41:33;10.43;;;3.30;;
47259;SDS011;32999;52.412;4.890;2023-09-19T17:46:34;15.85;;;3.88;;
47259;SDS011;32999;52.412;4.890;2023-09-19T17:51:40;12.57;;;3.63;;
47259;SDS011;32999;52.412;4.890;2023-09-19T17:56:41;10.38;;;3.60;;
47259;SDS011;32999;52.412;4.890;2023-09-19T18:01:43;9.32;;;2.92;;
47259;SDS011;32999;52.412;4.890;2023-09-19T18:06:46;9.27;;;3.80;;
47259;SDS011;32999;52.412;4.890;2023-09-19T18:11:48;13.40;;;3.38;;
47259;SDS011;32999;52.412;4.890;2023-09-19T18:16:50;12.43;;;3.53;;
47259;SDS011;32999;52.412;4.890;2023-09-19T18:21:57;11.68;;;2.72;;
47259;SDS011;32999;52.412;4.890;2023-09-19T18:27:03;9.75;;;3.00;;
47259;SDS011;32999;52.412;4.890;2023-09-19T18:32:05;7.30;;;2.67;;
47259;SDS011;32999;52.412;4.890;2023-09-19T18:37:09;10.68;;;3.25;;
47259;SDS011;32999;52.412;4.890;2023-09-19T18:42:11;12.02;;;4.78;;
47259;SDS011;32999;52.412;4.890;2023-09-19T18:47:13;6.25;;;3.40;;
47259;SDS011;32999;52.412;4.890;2023-09-19T18:52:16;8.65;;;3.53;;
47259;SDS011;32999;52.412;4.890;2023-09-19T18:57:17;8.20;;;3.63;;
47259;SDS011;32999;52.412;4.890;2023-09-19T19:02:19;12.57;;;3.97;;
47259;SDS011;32999;52.412;4.890;2023-09-19T19:07:24;7.07;;;4.30;;
47259;SDS011;32999;52.412;4.890;2023-09-19T19:12:25;10.02;;;3.42;;
47259;SDS011;32999;52.412;4.890;2023-09-19T19:17:27;7.32;;;3.70;;
47259;SDS011;32999;52.412;4.890;2023-09-19T19:22:31;9.57;;;3.67;;
47259;SDS011;32999;52.412;4.890;2023-09-19T19:27:33;12.03;;;3.83;;
47259;SDS011;32999;52.412;4.890;2023-09-19T19:32:35;10.05;;;3.95;;
47259;SDS011;32999;52.412;4.890;2023-09-19T19:37:38;11.68;;;4.18;;
47259;SDS011;32999;52.412;4.890;2023-09-19T19:42:40;6.78;;;3.80;;
47259;SDS011;32999;52.412;4.890;2023-09-19T19:47:41;10.48;;;3.80;;
47259;SDS011;32999;52.412;4.890;2023-09-19T19:52:44;18.15;;;4.93;;
47259;SDS011;32999;52.412;4.890;2023-09-19T19:57:47;11.67;;;4.03;;
47259;SDS011;32999;52.412;4.890;2023-09-19T20:02:48;9.45;;;5.28;;
47259;SDS011;32999;52.412;4.890;2023-09-19T20:07:52;11.70;;;3.30;;
47259;SDS011;32999;52.412;4.890;2023-09-19T20:12:54;10.32;;;3.47;;
47259;SDS011;32999;52.412;4.890;2023-09-19T20:17:55;10.60;;;4.47;;
47259;SDS011;32999;52.412;4.890;2023-09-19T20:23:01;15.20;;;4.00;;
47259;SDS011;32999;52.412;4.890;2023-09-19T20:28:03;12.17;;;4.03;;
47259;SDS011;32999;52.412;4.890;2023-09-19T20:33:05;10.45;;;3.17;;
47259;SDS011;32999;52.412;4.890;2023-09-19T20:38:08;12.00;;;3.13;;
47259;SDS011;32999;52.412;4.890;2023-09-19T20:43:11;11.32;;;3.33;;
47259;SDS011;32999;52.412;4.890;2023-09-19T20:48:14;7.97;;;2.88;;
47259;SDS011;32999;52.412;4.890;2023-09-19T20:53:18;5.70;;;2.90;;
47259;SDS011;32999;52.412;4.890;2023-09-19T20:58:20;6.63;;;3.05;;
47259;SDS011;32999;52.412;4.890;2023-09-19T21:03:22;10.88;;;3.30;;
47259;SDS011;32999;52.412;4.890;2023-09-19T21:08:25;8.82;;;3.20;;
47259;SDS011;32999;52.412;4.890;2023-09-19T21:13:26;10.20;;;3.25;;
47259;SDS011;32999;52.412;4.890;2023-09-19T21:18:28;8.23;;;2.95;;
47259;SDS011;32999;52.412;4.890;2023-09-19T21:23:31;5.93;;;2.55;;
47259;SDS011;32999;52.412;4.890;2023-09-19T21:28:33;16.17;;;3.40;;
47259;SDS011;32999;52.412;4.890;2023-09-19T21:33:36;11.95;;;3.22;;
47259;SDS011;32999;52.412;4.890;2023-09-19T21:38:40;5.63;;;2.60;;
47259;SDS011;32999;52.412;4.890;2023-09-19T21:43:42;8.93;;;3.78;;
47259;SDS011;32999;52.412;4.890;2023-09-19T21:48:44;12.93;;;3.13;;
47259;SDS011;32999;52.412;4.890;2023-09-19T21:53:49;12.10;;;3.83;;
47259;SDS011;32999;52.412;4.890;2023-09-19T21:58:52;10.18;;;3.83;;
47259;SDS011;32999;52.412;4.890;2023-09-19T22:03:55;9.32;;;3.20;;
47259;SDS011;32999;52.412;4.890;2023-09-19T22:08:59;12.18;;;3.40;;
47259;SDS011;32999;52.412;4.890;2023-09-19T22:14:01;11.93;;;3.63;;
47259;SDS011;32999;52.412;4.890;2023-09-19T22:19:02;8.48;;;3.47;;
47259;SDS011;32999;52.412;4.890;2023-09-19T22:24:06;10.73;;;3.38;;
47259;SDS011;32999;52.412;4.890;2023-09-19T22:29:11;7.88;;;3.72;;
47259;SDS011;32999;52.412;4.890;2023-09-19T22:34:13;8.38;;;3.65;;
47259;SDS011;32999;52.412;4.890;2023-09-19T22:39:17;10.35;;;2.90;;
47259;SDS011;32999;52.412;4.890;2023-09-19T22:44:20;10.82;;;3.42;;
47259;SDS011;32999;52.412;4.890;2023-09-19T22:49:23;12.05;;;3.05;;
47259;SDS011;32999;52.412;4.890;2023-09-19T22:54:28;14.30;;;3.37;;
47259;SDS011;32999;52.412;4.890;2023-09-19T22:59:35;12.07;;;2.60;;
47259;SDS011;32999;52.412;4.890;2023-09-19T23:04:38;12.57;;;3.53;;
47259;SDS011;32999;52.412;4.890;2023-09-19T23:09:43;13.25;;;3.13;;
47259;SDS011;32999;52.412;4.890;2023-09-19T23:14:46;14.63;;;3.15;;
47259;SDS011;32999;52.412;4.890;2023-09-19T23:19:47;14.88;;;3.55;;
47259;SDS011;32999;52.412;4.890;2023-09-19T23:24:51;12.25;;;3.15;;
47259;SDS011;32999;52.412;4.890;2023-09-19T23:29:58;10.98;;;3.15;;
47259;SDS011;32999;52.412;4.890;2023-09-19T23:35:00;8.68;;;3.47;;
47259;SDS011;32999;52.412;4.890;2023-09-19T23:40:03;11.63;;;3.22;;
47259;SDS011;32999;52.412;4.890;2023-09-19T23:45:09;16.58;;;4.45;;
47259;SDS011;32999;52.412;4.890;2023-09-19T23:50:11;12.50;;;3.10;;
47259;SDS011;32999;52.412;4.890;2023-09-19T23:55:16;13.50;;;3.70;;
